createdAt,value
2022-11-12T00:02:33.609Z,99939.88
2022-11-12T00:05:18.807Z,99935.84
2022-11-12T00:08:04.374Z,99935.84
2022-11-12T00:10:49.364Z,99935.38
2022-11-12T00:13:34.358Z,99931.31
2022-11-12T00:16:19.632Z,99940.78
2022-11-12T00:19:04.841Z,99933.50
2022-11-12T00:21:49.974Z,99936.47
2022-11-12T00:24:34.961Z,99930.31
2022-11-12T00:27:20.392Z,99943.53
2022-11-12T00:30:05.964Z,99940.22
2022-11-12T00:32:51.403Z,99932.94
2022-11-12T00:35:36.809Z,99931.63
2022-11-12T00:38:21.973Z,99932.22
2022-11-12T00:41:07.277Z,99940.31
2022-11-12T00:43:52.697Z,99934.34
2022-11-12T00:46:38.302Z,99936.97
2022-11-12T00:49:23.812Z,99911.25
2022-11-12T00:52:08.747Z,99934.84
2022-11-12T00:54:53.720Z,99943.66
2022-11-12T00:57:39.021Z,99942.94
2022-11-12T01:00:24.667Z,99947.34
2022-11-12T01:03:09.913Z,99944.59
2022-11-12T01:05:55.404Z,99947.09
2022-11-12T01:08:41.639Z,99951.06
2022-11-12T01:11:29.746Z,99947.09
2022-11-12T01:14:15.360Z,99945.66
2022-11-12T01:17:00.864Z,99941.88
2022-11-12T01:19:46.307Z,99936.16
2022-11-12T01:22:31.710Z,99940.31
2022-11-12T01:25:16.957Z,99940.09
2022-11-12T01:28:02.728Z,99936.00
2022-11-12T01:30:48.155Z,99941.72
2022-11-12T01:33:33.870Z,99939.72
2022-11-12T01:36:19.845Z,99935.81
2022-11-12T01:39:06.832Z,99936.97
2022-11-12T01:41:52.283Z,99934.66
2022-11-12T01:44:42.240Z,99937.66
2022-11-12T01:47:34.401Z,99926.34
2022-11-12T01:50:34.008Z,99934.31
2022-11-12T01:53:21.140Z,99943.94
2022-11-12T01:56:07.900Z,99933.38
2022-11-12T01:58:58.860Z,99922.88
2022-11-12T02:01:44.076Z,99934.56
2022-11-12T02:04:29.693Z,99931.00
2022-11-12T02:07:16.357Z,99901.19
2022-11-12T02:10:03.270Z,99936.22
2022-11-12T02:12:51.474Z,99934.31
2022-11-12T02:15:38.658Z,99932.53
2022-11-12T02:18:24.507Z,99946.81
2022-11-12T02:21:10.191Z,99944.09
2022-11-12T02:24:06.387Z,99939.56
2022-11-12T02:26:54.400Z,99943.13
2022-11-12T02:29:39.866Z,99942.31
2022-11-12T02:32:25.102Z,99941.47
2022-11-12T02:35:10.931Z,99939.91
2022-11-12T02:37:55.804Z,99940.84
2022-11-12T02:40:41.020Z,99940.72
2022-11-12T02:43:26.196Z,99941.69
2022-11-12T02:46:12.003Z,99940.59
2022-11-12T02:48:57.242Z,99938.44
2022-11-12T02:51:42.584Z,99937.00
2022-11-12T02:54:27.713Z,99939.53
2022-11-12T02:57:12.887Z,99945.00
2022-11-12T02:59:58.380Z,99940.00
2022-11-12T03:02:43.650Z,99942.16
2022-11-12T03:05:32.142Z,99937.75
2022-11-12T03:08:17.563Z,99941.41
2022-11-12T03:11:07.711Z,99938.69
2022-11-12T03:13:52.591Z,99946.44
2022-11-12T03:16:37.822Z,99948.31
2022-11-12T03:19:23.028Z,99812.25
2022-11-12T03:22:08.473Z,99943.84
2022-11-12T03:24:53.525Z,99949.25
2022-11-12T03:27:38.677Z,99953.75
2022-11-12T03:30:26.455Z,99956.38
2022-11-12T03:33:13.844Z,99946.75
2022-11-12T03:35:59.147Z,99948.41
2022-11-12T03:38:44.549Z,99938.88
2022-11-12T03:41:29.817Z,99939.03
2022-11-12T03:44:15.250Z,99938.28
2022-11-12T03:47:00.869Z,99936.84
2022-11-12T03:49:46.215Z,99935.91
2022-11-12T03:52:31.369Z,99932.56
2022-11-12T03:55:18.531Z,99936.34
2022-11-12T03:58:03.765Z,99914.88
2022-11-12T04:00:48.747Z,99925.16
2022-11-12T04:03:34.258Z,99938.78
2022-11-12T04:06:19.777Z,99933.41
2022-11-12T04:09:05.023Z,99930.50
2022-11-12T04:11:50.458Z,99925.88
2022-11-12T04:14:35.754Z,99927.31
2022-11-12T04:17:21.247Z,99927.44
2022-11-12T04:20:06.993Z,99927.66
2022-11-12T04:22:52.068Z,99927.03
2022-11-12T04:25:37.308Z,99926.75
2022-11-12T04:28:22.391Z,99931.03
2022-11-12T04:31:07.787Z,99940.75
2022-11-12T04:33:53.082Z,99936.41
2022-11-12T04:36:38.387Z,99940.38
2022-11-12T04:39:23.800Z,99936.59
2022-11-12T04:42:10.397Z,99946.66
2022-11-12T04:44:55.969Z,99907.88
2022-11-12T04:47:42.181Z,99950.59
2022-11-12T04:50:27.279Z,99941.63
2022-11-12T04:53:13.079Z,99929.63
2022-11-12T04:55:59.189Z,99938.41
2022-11-12T04:58:44.548Z,99943.88
2022-11-12T05:01:30.041Z,99917.72
2022-11-12T05:04:15.420Z,99936.25
2022-11-12T05:07:01.023Z,99943.63
2022-11-12T05:09:46.445Z,99892.38
2022-11-12T05:12:31.429Z,99929.44
2022-11-12T05:15:16.676Z,99942.53
2022-11-12T05:18:02.150Z,99927.13
2022-11-12T05:20:47.386Z,99929.00
2022-11-12T05:23:32.208Z,99932.31
2022-11-12T05:26:17.495Z,99932.25
2022-11-12T05:29:06.274Z,99935.06
2022-11-12T05:31:53.787Z,99938.72
2022-11-12T05:34:39.003Z,99942.16
2022-11-12T05:37:24.577Z,99942.47
2022-11-12T05:40:10.094Z,99946.00
2022-11-12T05:42:55.420Z,99950.59
2022-11-12T05:45:43.867Z,99948.28
2022-11-12T05:48:30.032Z,99946.22
2022-11-12T05:51:15.794Z,99944.09
2022-11-12T05:54:01.754Z,99949.94
2022-11-12T05:56:47.364Z,99953.03
2022-11-12T05:59:32.976Z,99940.09
2022-11-12T06:02:18.038Z,99941.22
2022-11-12T06:05:03.813Z,99944.53
2022-11-12T06:07:49.005Z,99947.34
2022-11-12T06:10:34.512Z,99948.84
2022-11-12T06:13:21.861Z,99916.41
2022-11-12T06:16:07.873Z,99948.50
2022-11-12T06:18:53.264Z,99961.25
2022-11-12T06:21:38.441Z,99954.25
2022-11-12T06:24:24.069Z,99954.16
2022-11-12T06:27:09.655Z,99955.41
2022-11-12T06:29:54.817Z,99962.97
2022-11-12T06:32:40.568Z,99960.41
2022-11-12T06:35:25.643Z,99963.66
2022-11-12T06:38:11.274Z,99917.09
2022-11-12T06:40:57.139Z,99964.50
2022-11-12T06:43:42.593Z,99956.84
2022-11-12T06:46:28.102Z,99968.47
2022-11-12T06:49:13.262Z,99968.34
2022-11-12T06:51:58.339Z,99965.31
2022-11-12T06:54:43.352Z,99963.88
2022-11-12T06:57:29.048Z,99965.44
2022-11-12T07:00:14.973Z,99973.59
2022-11-12T07:03:00.137Z,99970.66
2022-11-12T07:05:45.301Z,99960.41
2022-11-12T07:08:31.361Z,99963.97
2022-11-12T07:11:18.572Z,99958.22
2022-11-12T07:14:06.956Z,99915.44
2022-11-12T07:16:51.979Z,99960.53
2022-11-12T07:19:37.348Z,99959.78
2022-11-12T07:22:22.720Z,99942.84
2022-11-12T07:25:08.663Z,99959.69
2022-11-12T07:27:53.789Z,99953.31
2022-11-12T07:30:38.993Z,99951.09
2022-11-12T07:33:24.052Z,99951.41
2022-11-12T07:36:14.277Z,99958.09
2022-11-12T07:39:01.530Z,99926.25
2022-11-12T07:41:46.616Z,99965.94
2022-11-12T07:44:31.770Z,99968.91
2022-11-12T07:47:16.971Z,99958.38
2022-11-12T07:50:02.213Z,99967.44
2022-11-12T07:52:47.414Z,99962.53
2022-11-12T07:55:32.746Z,99970.75
2022-11-12T07:58:18.351Z,99975.59
2022-11-12T08:01:34.639Z,99972.97
2022-11-12T08:04:20.026Z,99963.25
2022-11-12T08:07:05.569Z,99946.75
2022-11-12T08:09:50.655Z,99970.34
2022-11-12T08:12:36.063Z,99970.66
2022-11-12T08:15:21.390Z,99976.28
2022-11-12T08:18:06.859Z,99981.09
2022-11-12T08:20:52.230Z,99975.81
2022-11-12T08:23:37.616Z,99970.91
2022-11-12T08:26:22.585Z,99974.19
2022-11-12T08:29:16.380Z,99976.25
2022-11-12T08:32:01.506Z,99972.56
2022-11-12T08:34:46.813Z,99970.44
2022-11-12T08:37:32.252Z,99972.09
2022-11-12T08:40:18.304Z,99970.56
2022-11-12T08:43:06.134Z,99969.63
2022-11-12T08:45:51.308Z,99984.25
2022-11-12T08:48:37.445Z,99981.28
2022-11-12T08:51:22.739Z,99979.72
2022-11-12T08:54:11.003Z,99974.03
2022-11-12T08:56:55.984Z,99975.81
2022-11-12T08:59:41.105Z,99976.66
2022-11-12T09:02:26.493Z,99973.59
2022-11-12T09:05:12.008Z,99975.03
2022-11-12T09:08:04.917Z,99977.16
2022-11-12T09:10:51.233Z,99956.72
2022-11-12T09:13:36.618Z,99976.88
2022-11-12T09:16:21.889Z,99980.00
2022-11-12T09:19:07.484Z,99983.53
2022-11-12T09:21:53.213Z,99983.31
2022-11-12T09:24:38.503Z,99984.13
2022-11-12T09:27:27.146Z,99974.13
2022-11-12T09:30:12.297Z,99974.88
2022-11-12T09:32:58.370Z,99977.25
2022-11-12T09:35:45.036Z,99962.59
2022-11-12T09:38:31.360Z,99948.41
2022-11-12T09:41:25.780Z,99976.16
2022-11-12T09:44:15.819Z,99975.97
2022-11-12T09:47:09.492Z,99966.28
2022-11-12T09:50:29.790Z,99969.50
2022-11-12T09:53:18.999Z,99960.03
2022-11-12T09:56:10.068Z,99970.81
2022-11-12T09:58:55.607Z,99974.25
2022-11-12T10:02:10.385Z,99970.22
2022-11-12T10:05:04.504Z,99967.38
2022-11-12T10:08:02.362Z,99964.09
2022-11-12T10:10:51.116Z,99967.94
2022-11-12T10:13:39.521Z,99960.47
2022-11-12T10:16:35.758Z,99958.91
2022-11-12T10:19:39.294Z,99957.06
2022-11-12T10:22:33.693Z,99960.50
2022-11-12T10:25:20.381Z,99948.09
2022-11-12T10:28:19.846Z,99952.75
2022-11-12T10:31:12.181Z,99954.16
2022-11-12T10:34:17.535Z,99953.69
2022-11-12T10:37:23.355Z,99948.34
2022-11-12T10:40:35.965Z,99939.91
2022-11-12T10:43:23.602Z,99940.19
2022-11-12T10:46:20.935Z,99951.66
2022-11-12T10:49:15.167Z,99948.06
2022-11-12T10:52:00.604Z,99941.78
2022-11-12T10:54:49.670Z,99938.63
2022-11-12T10:57:37.995Z,99934.06
2022-11-12T11:00:23.697Z,99928.66
2022-11-12T11:03:22.378Z,99925.03
2022-11-12T11:06:21.752Z,99920.00
2022-11-12T11:09:12.590Z,99922.06
2022-11-12T11:11:57.496Z,99907.34
2022-11-12T11:14:43.170Z,99920.97
2022-11-12T11:17:28.481Z,99915.16
2022-11-12T11:20:40.387Z,99914.69
2022-11-12T11:23:47.240Z,99917.41
2022-11-12T11:26:54.289Z,99922.50
2022-11-12T11:30:00.630Z,99915.75
2022-11-12T11:33:16.464Z,99908.09
2022-11-12T11:36:30.418Z,99909.00
2022-11-12T11:40:04.984Z,99899.84
2022-11-12T11:43:16.243Z,99905.63
2022-11-12T11:46:07.502Z,99900.78
2022-11-12T11:48:59.085Z,99900.91
2022-11-12T11:51:49.773Z,99891.81
2022-11-12T11:54:55.943Z,99887.06
2022-11-12T11:58:29.653Z,99887.94
2022-11-12T12:01:53.825Z,99886.06
2022-11-12T12:04:52.454Z,99876.19
2022-11-12T12:07:49.947Z,99888.34
2022-11-12T12:11:10.455Z,99882.00
2022-11-12T12:14:03.293Z,99874.53
2022-11-12T12:17:04.603Z,99874.31
2022-11-12T12:20:27.567Z,99875.53
2022-11-12T12:23:36.606Z,99877.16
2022-11-12T12:26:31.717Z,99870.72
2022-11-12T12:29:46.903Z,99865.91
2022-11-12T12:32:43.750Z,99870.63
2022-11-12T12:35:51.626Z,99869.25
2022-11-12T12:38:56.742Z,99868.97
2022-11-12T12:42:01.537Z,99864.38
2022-11-12T12:45:03.519Z,99861.34
2022-11-12T12:47:52.942Z,99855.09
2022-11-12T12:50:42.374Z,99823.13
2022-11-12T12:53:28.266Z,99859.41
2022-11-12T12:56:14.687Z,99848.47
2022-11-12T12:59:01.897Z,99847.03
2022-11-12T13:02:22.809Z,99836.44
2022-11-12T13:05:32.462Z,99846.53
2022-11-12T13:08:26.907Z,99800.88
2022-11-12T13:11:39.578Z,99831.69
2022-11-12T13:14:31.601Z,99834.50
2022-11-12T13:17:47.416Z,99836.13
2022-11-12T13:20:37.046Z,99836.13
2022-11-12T13:23:51.359Z,99836.47
2022-11-12T13:26:40.324Z,99834.84
2022-11-12T13:29:30.006Z,99836.13
2022-11-12T13:32:41.508Z,99837.63
2022-11-12T13:35:30.417Z,99844.59
2022-11-12T13:38:17.207Z,99815.44
2022-11-12T13:41:27.829Z,99836.50
2022-11-12T13:44:18.728Z,99831.38
2022-11-12T13:47:05.109Z,99817.13
2022-11-12T13:49:51.581Z,99827.41
2022-11-12T13:52:43.312Z,99791.63
2022-11-12T13:55:29.205Z,99815.97
2022-11-12T13:58:42.224Z,99815.97
2022-11-12T14:01:35.471Z,99824.06
2022-11-12T14:04:24.985Z,99825.09
2022-11-12T14:07:14.600Z,99821.25
2022-11-12T14:10:32.514Z,99772.56
2022-11-12T14:13:29.776Z,99805.03
2022-11-12T14:16:46.389Z,99805.66
2022-11-12T14:20:07.410Z,99806.53
2022-11-12T14:22:55.864Z,99800.75
2022-11-12T14:25:55.582Z,99796.59
2022-11-12T14:28:46.393Z,99793.28
2022-11-12T14:31:33.417Z,99788.13
2022-11-12T14:34:40.484Z,99787.34
2022-11-12T14:37:43.039Z,99784.69
2022-11-12T14:40:36.151Z,99777.22
2022-11-12T14:43:42.630Z,99776.06
2022-11-12T14:46:47.074Z,99766.78
2022-11-12T14:49:49.400Z,99761.34
2022-11-12T14:52:42.500Z,99756.88
2022-11-12T14:55:38.162Z,99754.88
2022-11-12T14:58:28.933Z,99757.53
2022-11-12T15:02:20.648Z,99759.34
2022-11-12T15:04:53.562Z,99692.66
2022-11-12T15:08:05.671Z,99760.81
2022-11-12T15:10:58.869Z,99757.84
2022-11-12T15:13:47.800Z,99757.16
2022-11-12T15:16:38.817Z,99757.78
2022-11-12T15:19:30.309Z,99750.50
2022-11-12T15:22:23.608Z,99753.28
2022-11-12T15:25:13.658Z,99753.22
2022-11-12T15:28:24.377Z,99742.09
2022-11-12T15:31:22.134Z,99748.66
2022-11-12T15:34:34.363Z,99761.44
2022-11-12T15:37:23.697Z,99763.19
2022-11-12T15:40:23.560Z,99771.84
2022-11-12T15:43:26.795Z,99765.44
2022-11-12T15:46:15.220Z,99762.25
2022-11-12T15:49:05.653Z,99773.13
2022-11-12T15:51:53.863Z,99757.72
2022-11-12T15:54:42.052Z,99760.34
2022-11-12T15:57:31.200Z,99749.19
2022-11-12T16:00:21.895Z,99754.41
2022-11-12T16:03:20.378Z,99756.34
2022-11-12T16:06:13.337Z,99769.38
2022-11-12T16:09:01.307Z,99768.31
2022-11-12T16:11:49.629Z,99763.78
2022-11-12T16:14:36.548Z,99756.16
2022-11-12T16:17:23.363Z,99760.56
2022-11-12T16:20:18.952Z,99765.34
2022-11-12T16:23:05.060Z,99757.53
2022-11-12T16:25:53.682Z,99770.50
2022-11-12T16:28:39.529Z,99770.19
2022-11-12T16:31:26.022Z,99767.19
2022-11-12T16:34:13.166Z,99761.41
2022-11-12T16:37:00.675Z,99768.03
2022-11-12T16:39:47.520Z,99765.50
2022-11-12T16:42:33.746Z,99785.88
2022-11-12T16:45:26.211Z,99782.03
2022-11-12T16:48:21.680Z,99785.34
2022-11-12T16:51:15.758Z,99764.47
2022-11-12T16:54:01.409Z,99783.69
2022-11-12T16:56:46.707Z,99782.34
2022-11-12T16:59:31.930Z,99775.53
2022-11-12T17:02:17.492Z,99776.91
2022-11-12T17:05:04.570Z,99769.81
2022-11-12T17:07:54.443Z,99772.22
2022-11-12T17:10:39.930Z,99762.09
2022-11-12T17:13:25.624Z,99765.28
2022-11-12T17:16:11.161Z,99769.19
2022-11-12T17:18:58.396Z,99749.66
2022-11-12T17:21:44.506Z,99761.84
2022-11-12T17:24:29.804Z,99752.03
2022-11-12T17:27:14.870Z,99753.31
2022-11-12T17:30:00.096Z,99750.13
2022-11-12T17:32:45.459Z,99752.50
2022-11-12T17:35:33.430Z,99714.28
2022-11-12T17:38:19.076Z,99748.75
2022-11-12T17:41:05.417Z,99746.56
2022-11-12T17:43:58.447Z,99747.78
2022-11-12T17:46:45.385Z,99757.91
2022-11-12T17:49:30.781Z,99753.75
2022-11-12T17:52:15.915Z,99746.00
2022-11-12T17:55:01.272Z,99747.50
2022-11-12T17:57:46.225Z,99747.78
2022-11-12T18:00:32.077Z,99742.91
2022-11-12T18:03:18.303Z,99711.00
2022-11-12T18:06:04.145Z,99743.53
2022-11-12T18:09:03.856Z,99744.34
2022-11-12T18:11:54.410Z,99738.22
2022-11-12T18:14:39.716Z,99743.47
2022-11-12T18:17:24.926Z,99740.13
2022-11-12T18:20:10.044Z,99732.53
2022-11-12T18:22:58.922Z,99690.81
2022-11-12T18:25:44.371Z,99732.31
2022-11-12T18:28:29.437Z,99744.28
2022-11-12T18:31:14.878Z,99753.28
2022-11-12T18:34:00.518Z,99750.53
2022-11-12T18:36:45.853Z,99749.69
2022-11-12T18:39:31.256Z,99742.78
2022-11-12T18:42:16.392Z,99745.50
2022-11-12T18:45:01.670Z,99748.03
2022-11-12T18:47:47.021Z,99747.19
2022-11-12T18:50:32.189Z,99741.38
2022-11-12T18:53:17.389Z,99742.84
2022-11-12T18:56:06.309Z,99749.56
2022-11-12T18:58:53.323Z,99743.44
2022-11-12T19:01:38.724Z,99742.56
2022-11-12T19:04:24.654Z,99737.13
2022-11-12T19:07:10.082Z,99738.66
2022-11-12T19:09:56.611Z,99748.19
2022-11-12T19:12:41.609Z,99741.22
2022-11-12T19:15:27.357Z,99722.19
2022-11-12T19:18:14.150Z,99729.13
2022-11-12T19:21:03.763Z,99722.72
2022-11-12T19:23:54.539Z,99727.38
2022-11-12T19:26:40.350Z,99728.72
2022-11-12T19:29:25.619Z,99724.69
2022-11-12T19:32:10.931Z,99724.25
2022-11-12T19:34:56.045Z,99727.34
2022-11-12T19:37:41.243Z,99722.75
2022-11-12T19:40:26.561Z,99719.88
2022-11-12T19:43:12.004Z,99722.75
2022-11-12T19:45:57.336Z,99714.53
2022-11-12T19:48:42.380Z,99717.41
2022-11-12T19:51:27.539Z,99719.44
2022-11-12T19:54:12.926Z,99722.47
2022-11-12T19:56:58.424Z,99705.81
2022-11-12T19:59:43.937Z,99710.56
2022-11-12T20:02:28.997Z,99717.31
2022-11-12T20:05:14.447Z,99719.34
2022-11-12T20:07:59.325Z,99717.22
2022-11-12T20:10:44.607Z,99713.78
2022-11-12T20:13:30.213Z,99712.47
2022-11-12T20:16:22.254Z,99717.84
2022-11-12T20:19:10.380Z,99711.53
2022-11-12T20:21:55.484Z,99711.16
2022-11-12T20:24:41.011Z,99717.22
2022-11-12T20:27:26.478Z,99707.00
2022-11-12T20:30:12.308Z,99672.53
2022-11-12T20:32:57.169Z,99725.66
2022-11-12T20:35:42.561Z,99717.63
2022-11-12T20:38:28.571Z,99712.84
2022-11-12T20:41:16.539Z,99706.81
2022-11-12T20:44:01.959Z,99714.66
2022-11-12T20:46:47.422Z,99720.94
2022-11-12T20:49:32.267Z,99719.31
2022-11-12T20:52:17.537Z,99710.88
2022-11-12T20:55:02.363Z,99711.22
2022-11-12T20:57:47.647Z,99692.78
2022-11-12T21:00:33.006Z,99712.66
2022-11-12T21:03:17.886Z,99706.81
2022-11-12T21:06:05.539Z,99708.75
2022-11-12T21:08:50.948Z,99713.38
2022-11-12T21:11:36.157Z,99703.50
2022-11-12T21:14:21.389Z,99697.53
2022-11-12T21:17:06.998Z,99695.75
2022-11-12T21:19:52.330Z,99696.25
2022-11-12T21:22:37.528Z,99684.59
2022-11-12T21:25:22.970Z,99686.13
2022-11-12T21:28:08.106Z,99694.94
2022-11-12T21:30:53.344Z,99680.44
2022-11-12T21:33:39.128Z,99683.06
2022-11-12T21:36:29.938Z,99686.28
2022-11-12T21:39:15.022Z,99682.22
2022-11-12T21:42:00.140Z,99685.44
2022-11-12T21:44:45.505Z,99682.94
2022-11-12T21:47:30.659Z,99676.88
2022-11-12T21:50:16.293Z,99673.06
2022-11-12T21:53:01.549Z,99674.72
2022-11-12T21:55:46.838Z,99674.63
2022-11-12T21:58:32.229Z,99670.22
2022-11-12T22:01:20.087Z,99677.56
2022-11-12T22:04:07.449Z,99659.41
2022-11-12T22:06:52.655Z,99672.56
2022-11-12T22:09:37.936Z,99664.50
2022-11-12T22:12:23.085Z,99667.81
2022-11-12T22:15:10.801Z,99667.22
2022-11-12T22:17:58.082Z,99657.81
2022-11-12T22:20:43.541Z,99654.72
2022-11-12T22:23:29.352Z,99656.13
2022-11-12T22:26:17.575Z,99657.69
2022-11-12T22:29:03.061Z,99647.22
2022-11-12T22:31:48.705Z,99652.44
2022-11-12T22:34:34.385Z,99645.69
2022-11-12T22:37:19.759Z,99646.75
2022-11-12T22:40:10.482Z,99650.31
2022-11-12T22:42:58.540Z,99634.03
2022-11-12T22:45:44.267Z,99648.91
2022-11-12T22:48:31.335Z,99650.34
2022-11-12T22:51:22.193Z,99601.72
2022-11-12T22:54:07.737Z,99642.38
2022-11-12T22:56:52.684Z,99638.31
2022-11-12T22:59:38.212Z,99629.03
2022-11-12T23:02:23.539Z,99622.63
2022-11-12T23:05:09.386Z,99624.78
2022-11-12T23:07:54.979Z,99623.72
2022-11-12T23:10:45.470Z,99627.16
2022-11-12T23:13:31.463Z,99611.47
2022-11-12T23:16:20.555Z,99614.09
2022-11-12T23:19:05.911Z,99610.78
2022-11-12T23:21:51.236Z,99604.09
2022-11-12T23:24:36.165Z,99613.47
2022-11-12T23:27:21.325Z,99615.38
2022-11-12T23:30:07.004Z,99608.97
2022-11-12T23:32:52.851Z,99610.38
2022-11-12T23:35:38.508Z,99618.03
2022-11-12T23:38:23.969Z,99613.59
2022-11-12T23:41:14.402Z,99605.91
2022-11-12T23:43:59.858Z,99609.69
2022-11-12T23:46:44.843Z,99600.31
2022-11-12T23:49:29.941Z,99597.19
2022-11-12T23:52:15.302Z,99592.44
2022-11-12T23:55:00.738Z,99589.25
2022-11-12T23:57:45.931Z,99572.25
